createdAt,value
2017-08-05T00:00:54.867Z,64.31
2017-08-05T00:03:22.495Z,64.53
2017-08-05T00:05:50.107Z,65.17
2017-08-05T00:08:17.767Z,65.45
2017-08-05T00:10:45.419Z,65.65
2017-08-05T00:13:13.198Z,65.20
2017-08-05T00:15:40.794Z,65.02
2017-08-05T00:18:08.419Z,64.79
2017-08-05T00:20:36.019Z,64.60
2017-08-05T00:23:03.661Z,64.59
2017-08-05T00:25:31.242Z,64.63
2017-08-05T00:27:58.938Z,64.45
2017-08-05T00:30:26.553Z,64.71
2017-08-05T00:32:54.177Z,64.52
2017-08-05T00:35:21.833Z,65.46
2017-08-05T00:37:49.438Z,66.00
2017-08-05T00:40:17.059Z,66.20
2017-08-05T00:42:44.690Z,66.24
2017-08-05T00:45:12.289Z,65.25
2017-08-05T00:47:39.912Z,65.79
2017-08-05T00:50:07.511Z,66.14
2017-08-05T00:52:35.139Z,66.68
2017-08-05T00:55:02.769Z,65.93
2017-08-05T00:57:30.398Z,65.97
2017-08-05T00:59:57.995Z,65.95
2017-08-05T01:02:25.623Z,66.14
2017-08-05T01:04:53.203Z,66.57
2017-08-05T01:07:20.833Z,66.71
2017-08-05T01:09:48.428Z,66.97
2017-08-05T01:12:16.043Z,67.10
2017-08-05T01:14:43.646Z,67.08
2017-08-05T01:17:11.259Z,65.93
2017-08-05T01:19:38.857Z,66.10
2017-08-05T01:22:07.052Z,65.99
2017-08-05T01:24:34.667Z,65.92
2017-08-05T01:27:02.295Z,66.28
2017-08-05T01:29:29.961Z,66.89
2017-08-05T01:31:57.578Z,67.81
2017-08-05T01:34:25.178Z,68.86
2017-08-05T01:36:52.943Z,70.10
2017-08-05T01:39:20.537Z,70.48
2017-08-05T01:41:48.134Z,71.03
2017-08-05T01:44:15.773Z,71.52
2017-08-05T01:46:43.370Z,71.61
2017-08-05T01:49:10.990Z,71.92
2017-08-05T01:51:41.369Z,71.91
2017-08-05T01:54:09.010Z,72.28
2017-08-05T01:56:36.606Z,72.07
2017-08-05T01:59:04.211Z,72.23
2017-08-05T02:01:31.798Z,71.83
2017-08-05T02:03:59.437Z,72.58
2017-08-05T02:06:27.043Z,71.73
2017-08-05T02:08:54.687Z,72.09
2017-08-05T02:11:22.278Z,72.62
2017-08-05T02:13:49.894Z,72.94
2017-08-05T02:16:17.486Z,72.78
2017-08-05T02:18:45.118Z,72.79
2017-08-05T02:21:12.717Z,72.02
2017-08-05T02:23:40.346Z,72.39
2017-08-05T02:26:07.947Z,71.78
2017-08-05T02:28:35.538Z,71.63
2017-08-05T02:31:03.180Z,71.94
2017-08-05T02:33:30.774Z,71.71
2017-08-05T02:35:58.399Z,72.16
2017-08-05T02:38:26.078Z,72.26
2017-08-05T02:40:53.710Z,72.28
2017-08-05T02:43:21.331Z,72.34
2017-08-05T02:45:48.957Z,71.31
2017-08-05T02:48:16.549Z,71.04
2017-08-05T02:50:44.287Z,71.87
2017-08-05T02:53:12.017Z,73.57
2017-08-05T02:55:39.838Z,72.38
2017-08-05T02:58:07.430Z,72.01
2017-08-05T03:00:35.054Z,71.60
2017-08-05T03:03:02.647Z,72.37
2017-08-05T03:05:30.273Z,72.31
2017-08-05T03:07:57.910Z,72.33
2017-08-05T03:10:25.534Z,71.96
2017-08-05T03:12:53.130Z,72.86
2017-08-05T03:15:20.755Z,72.66
2017-08-05T03:17:48.349Z,73.38
2017-08-05T03:20:15.965Z,73.86
2017-08-05T03:22:43.567Z,73.18
2017-08-05T03:25:11.198Z,73.56
2017-08-05T03:27:38.808Z,74.21
2017-08-05T03:30:06.459Z,74.72
2017-08-05T03:32:34.045Z,75.61
2017-08-05T03:35:01.710Z,75.31
2017-08-05T03:37:29.327Z,75.70
2017-08-05T03:39:56.940Z,75.68
2017-08-05T03:42:24.528Z,76.11
2017-08-05T03:44:52.162Z,77.00
2017-08-05T03:47:19.770Z,78.11
2017-08-05T03:49:47.400Z,78.60
2017-08-05T03:52:14.987Z,78.58
2017-08-05T03:54:42.612Z,78.20
2017-08-05T03:57:10.201Z,78.73
2017-08-05T03:59:37.852Z,78.29
2017-08-05T04:02:05.439Z,78.78
2017-08-05T04:04:33.082Z,79.48
2017-08-05T04:07:00.670Z,80.22
2017-08-05T04:09:28.291Z,81.26
2017-08-05T04:11:55.947Z,81.43
2017-08-05T04:14:23.569Z,81.45
2017-08-05T04:16:51.164Z,81.93
2017-08-05T04:19:18.786Z,81.53
2017-08-05T04:21:46.418Z,81.73
2017-08-05T04:24:14.019Z,81.69
2017-08-05T04:26:41.637Z,81.37
2017-08-05T04:29:09.244Z,81.48
2017-08-05T04:31:36.879Z,81.44
2017-08-05T04:34:04.583Z,81.51
2017-08-05T04:36:32.215Z,82.63
2017-08-05T04:38:59.878Z,82.16
2017-08-05T04:41:27.506Z,82.78
2017-08-05T04:43:55.099Z,82.46
2017-08-05T04:46:22.726Z,82.90
2017-08-05T04:48:50.330Z,83.13
2017-08-05T04:51:17.958Z,82.96
2017-08-05T04:53:45.550Z,82.93
2017-08-05T04:56:13.194Z,83.35
2017-08-05T04:58:40.779Z,82.69
2017-08-05T05:01:08.427Z,83.05
2017-08-05T05:03:36.018Z,84.18
2017-08-05T05:06:03.686Z,83.73
2017-08-05T05:08:31.274Z,83.09
2017-08-05T05:10:58.902Z,83.22
2017-08-05T05:13:26.534Z,83.83
2017-08-05T05:15:54.163Z,84.25
2017-08-05T05:18:21.767Z,84.51
2017-08-05T05:20:49.406Z,83.96
2017-08-05T05:23:17.029Z,83.79
2017-08-05T05:25:44.607Z,83.58
2017-08-05T05:28:12.235Z,84.41
2017-08-05T05:30:39.826Z,84.47
2017-08-05T05:33:07.471Z,84.44
2017-08-05T05:35:35.058Z,84.73
2017-08-05T05:38:02.653Z,84.88
2017-08-05T05:40:30.327Z,84.25
2017-08-05T05:42:57.948Z,84.63
2017-08-05T05:45:25.553Z,83.57
2017-08-05T05:47:53.251Z,84.28
2017-08-05T05:50:20.840Z,85.23
2017-08-05T05:52:48.462Z,85.48
2017-08-05T05:55:16.067Z,85.60
2017-08-05T05:57:43.693Z,85.86
2017-08-05T06:00:11.286Z,85.56
2017-08-05T06:02:38.908Z,86.44
2017-08-05T06:05:06.545Z,86.86
2017-08-05T06:07:34.177Z,87.94
2017-08-05T06:10:01.767Z,88.31
2017-08-05T06:12:29.394Z,88.62
2017-08-05T06:14:57.075Z,88.72
2017-08-05T06:17:24.703Z,87.64
2017-08-05T06:19:52.322Z,87.22
2017-08-05T06:22:19.952Z,87.75
2017-08-05T06:24:47.575Z,88.03
2017-08-05T06:27:15.242Z,87.24
2017-08-05T06:29:42.854Z,86.44
2017-08-05T06:32:10.584Z,86.56
2017-08-05T06:34:38.205Z,87.81
2017-08-05T06:37:05.810Z,87.59
2017-08-05T06:39:33.399Z,87.45
2017-08-05T06:42:01.093Z,87.73
2017-08-05T06:44:28.711Z,87.86
2017-08-05T06:46:56.338Z,88.25
2017-08-05T06:49:23.922Z,88.04
2017-08-05T06:51:51.546Z,88.52
2017-08-05T06:54:19.151Z,88.29
2017-08-05T06:56:46.781Z,87.69
2017-08-05T06:59:14.358Z,87.63
2017-08-05T07:01:42.005Z,88.12
2017-08-05T07:04:09.635Z,88.16
2017-08-05T07:06:37.253Z,88.60
2017-08-05T07:09:04.850Z,88.27
2017-08-05T07:11:32.486Z,88.63
2017-08-05T07:14:00.081Z,88.40
2017-08-05T07:16:27.712Z,88.40
2017-08-05T07:18:55.330Z,88.00
2017-08-05T07:21:22.982Z,86.99
2017-08-05T07:23:50.590Z,88.03
2017-08-05T07:26:18.181Z,88.38
2017-08-05T07:28:45.842Z,89.11
2017-08-05T07:31:13.433Z,89.37
2017-08-05T07:33:41.063Z,88.99
2017-08-05T07:36:08.683Z,89.20
2017-08-05T07:38:36.310Z,89.68
2017-08-05T07:41:03.904Z,89.43
2017-08-05T07:43:31.580Z,89.51
2017-08-05T07:45:59.170Z,89.25
2017-08-05T07:48:26.802Z,89.78
2017-08-05T07:50:54.387Z,90.10
2017-08-05T07:53:22.047Z,89.80
2017-08-05T07:55:49.633Z,90.07
2017-08-05T07:58:17.248Z,90.08
2017-08-05T08:00:44.915Z,90.58
2017-08-05T08:03:12.555Z,90.52
2017-08-05T08:05:40.154Z,90.21
2017-08-05T08:08:07.790Z,90.20
2017-08-05T08:10:35.387Z,90.37
2017-08-05T08:13:03.050Z,89.88
2017-08-05T08:15:30.654Z,89.68
2017-08-05T08:17:58.270Z,90.08
2017-08-05T08:20:25.887Z,88.76
2017-08-05T08:22:53.578Z,88.81
2017-08-05T08:25:21.229Z,89.06
2017-08-05T08:27:48.829Z,89.29
2017-08-05T08:30:16.458Z,88.06
2017-08-05T08:32:44.062Z,87.33
2017-08-05T08:35:11.699Z,87.78
2017-08-05T08:37:39.294Z,88.73
2017-08-05T08:40:06.932Z,89.56
2017-08-05T08:42:34.549Z,90.54
2017-08-05T08:45:02.182Z,90.46
2017-08-05T08:47:29.811Z,90.26
2017-08-05T08:49:57.441Z,90.35
2017-08-05T08:52:25.034Z,90.62
2017-08-05T08:54:52.706Z,90.45
2017-08-05T08:57:20.330Z,89.98
2017-08-05T08:59:47.963Z,89.53
2017-08-05T09:02:15.549Z,88.71
2017-08-05T09:04:43.179Z,87.59
2017-08-05T09:07:10.810Z,87.60
2017-08-05T09:09:38.447Z,87.75
2017-08-05T09:12:06.054Z,87.62
2017-08-05T09:14:33.694Z,88.01
2017-08-05T09:17:01.310Z,88.53
2017-08-05T09:19:28.920Z,88.96
2017-08-05T09:21:56.537Z,88.66
2017-08-05T09:24:24.144Z,89.07
2017-08-05T09:26:51.783Z,89.52
2017-08-05T09:29:19.396Z,88.38
2017-08-05T09:31:47.035Z,88.58
2017-08-05T09:34:14.620Z,88.63
2017-08-05T09:36:42.260Z,89.07
2017-08-05T09:39:09.862Z,89.31
2017-08-05T09:41:37.609Z,89.91
2017-08-05T09:44:05.418Z,90.03
2017-08-05T09:46:33.050Z,90.75
2017-08-05T09:49:00.662Z,90.69
2017-08-05T09:51:28.316Z,90.69
2017-08-05T09:53:55.918Z,91.07
2017-08-05T09:56:24.409Z,90.87
2017-08-05T09:58:52.077Z,90.91
2017-08-05T10:01:19.739Z,91.12
2017-08-05T10:03:47.489Z,91.72
2017-08-05T10:06:15.110Z,91.33
2017-08-05T10:08:43.075Z,91.44
2017-08-05T10:11:10.804Z,90.87
2017-08-05T10:13:38.528Z,90.35
2017-08-05T10:16:06.204Z,90.67
2017-08-05T10:18:33.816Z,90.09
2017-08-05T10:21:01.476Z,90.07
2017-08-05T10:23:29.095Z,89.50
2017-08-05T10:25:58.551Z,90.26
2017-08-05T10:28:26.292Z,90.09
2017-08-05T10:30:53.912Z,90.46
2017-08-05T10:33:21.561Z,90.73
2017-08-05T10:35:49.173Z,91.02
2017-08-05T10:38:16.928Z,90.99
2017-08-05T10:40:44.539Z,90.89
2017-08-05T10:43:12.188Z,90.91
2017-08-05T10:45:39.809Z,90.90
2017-08-05T10:48:07.470Z,90.45
2017-08-05T10:50:35.101Z,90.55
2017-08-05T10:53:02.897Z,89.58
2017-08-05T10:55:30.519Z,88.52
2017-08-05T10:57:58.176Z,88.34
2017-08-05T11:00:25.789Z,87.66
2017-08-05T11:02:53.545Z,87.82
2017-08-05T11:05:21.161Z,87.35
2017-08-05T11:07:48.804Z,85.74
2017-08-05T11:10:16.449Z,85.53
2017-08-05T11:12:44.119Z,84.99
2017-08-05T11:15:11.745Z,84.47
2017-08-05T11:17:39.389Z,84.69
2017-08-05T11:20:07.009Z,85.48
2017-08-05T11:22:34.660Z,85.16
2017-08-05T11:25:02.284Z,86.14
2017-08-05T11:27:29.927Z,86.15
2017-08-05T11:29:57.537Z,86.12
2017-08-05T11:32:25.184Z,85.50
2017-08-05T11:34:52.820Z,85.10
2017-08-05T11:37:20.473Z,84.50
2017-08-05T11:39:48.089Z,84.86
2017-08-05T11:42:15.728Z,85.01
2017-08-05T11:44:43.353Z,84.39
2017-08-05T11:47:10.996Z,85.75
2017-08-05T11:49:38.615Z,84.83
2017-08-05T11:52:06.271Z,84.57
2017-08-05T11:54:33.922Z,85.19
2017-08-05T11:57:01.620Z,84.55
2017-08-05T11:59:29.249Z,85.41
2017-08-05T12:01:56.924Z,85.60
2017-08-05T12:04:24.547Z,85.12
2017-08-05T12:06:52.175Z,85.48
2017-08-05T12:09:19.793Z,85.59
2017-08-05T12:11:47.455Z,85.62
2017-08-05T12:14:15.079Z,85.98
2017-08-05T12:16:42.731Z,86.04
2017-08-05T12:19:10.408Z,85.47
2017-08-05T12:21:38.032Z,85.50
2017-08-05T12:24:05.675Z,85.44
2017-08-05T12:26:33.289Z,85.77
2017-08-05T12:29:00.928Z,86.07
2017-08-05T12:31:28.568Z,85.93
2017-08-05T12:33:56.312Z,86.93
2017-08-05T12:36:23.925Z,86.74
2017-08-05T12:38:51.562Z,85.67
2017-08-05T12:41:19.191Z,83.59
2017-08-05T12:43:46.848Z,82.83
2017-08-05T12:46:14.449Z,82.36
2017-08-05T12:48:42.097Z,81.04
2017-08-05T12:51:09.719Z,80.37
2017-08-05T12:53:37.379Z,80.74
2017-08-05T12:56:04.999Z,81.79
2017-08-05T12:58:32.623Z,82.82
2017-08-05T13:01:00.272Z,82.20
2017-08-05T13:03:27.895Z,80.25
2017-08-05T13:05:55.524Z,80.65
2017-08-05T13:08:23.252Z,78.85
2017-08-05T13:10:50.918Z,77.72
2017-08-05T13:13:18.520Z,78.11
2017-08-05T13:15:46.170Z,76.90
2017-08-05T13:18:13.808Z,77.80
2017-08-05T13:20:41.451Z,77.02
2017-08-05T13:23:09.085Z,75.82
2017-08-05T13:25:36.728Z,74.75
2017-08-05T13:28:04.347Z,75.86
2017-08-05T13:30:31.999Z,73.88
2017-08-05T13:32:59.608Z,73.22
2017-08-05T13:35:27.236Z,72.38
2017-08-05T13:37:54.939Z,70.50
2017-08-05T13:40:22.564Z,66.79
2017-08-05T13:42:50.225Z,67.49
2017-08-05T13:45:17.828Z,66.61
2017-08-05T13:47:45.468Z,68.16
2017-08-05T13:50:13.076Z,68.80
2017-08-05T13:52:40.714Z,68.62
2017-08-05T13:55:08.327Z,68.75
2017-08-05T13:57:35.994Z,68.47
2017-08-05T14:00:03.588Z,69.01
2017-08-05T14:02:31.220Z,68.95
2017-08-05T14:04:58.835Z,70.31
2017-08-05T14:07:26.480Z,68.86
2017-08-05T14:09:54.087Z,69.18
2017-08-05T14:12:21.720Z,69.05
2017-08-05T14:14:49.333Z,68.39
2017-08-05T14:17:16.976Z,68.73
2017-08-05T14:19:44.573Z,68.16
2017-08-05T14:22:12.236Z,66.96
2017-08-05T14:24:39.844Z,64.40
2017-08-05T14:27:07.444Z,64.51
2017-08-05T14:29:35.070Z,60.59
2017-08-05T14:32:02.660Z,59.65
2017-08-05T14:34:30.292Z,58.31
2017-08-05T14:36:57.871Z,57.92
2017-08-05T14:39:25.514Z,59.73
2017-08-05T14:41:53.111Z,61.05
2017-08-05T14:44:20.762Z,61.93
2017-08-05T14:46:48.379Z,63.67
2017-08-05T14:49:16.027Z,64.86
2017-08-05T14:51:44.764Z,65.75
2017-08-05T14:54:12.455Z,67.12
2017-08-05T14:56:40.083Z,67.74
2017-08-05T14:59:07.706Z,68.28
2017-08-05T15:01:35.362Z,69.51
2017-08-05T15:04:03.019Z,71.64
2017-08-05T15:06:30.634Z,72.28
2017-08-05T15:08:58.275Z,73.31
2017-08-05T15:11:26.913Z,74.59
2017-08-05T15:13:54.624Z,74.30
2017-08-05T15:16:22.250Z,75.41
2017-08-05T15:18:49.948Z,74.62
2017-08-05T15:21:17.580Z,73.27
2017-08-05T15:23:45.219Z,74.25
2017-08-05T15:26:12.874Z,75.13
2017-08-05T15:28:40.504Z,76.40
2017-08-05T15:31:08.119Z,77.12
2017-08-05T15:33:35.748Z,77.27
2017-08-05T15:36:03.356Z,77.61
2017-08-05T15:38:31.016Z,77.37
2017-08-05T15:40:58.664Z,77.75
2017-08-05T15:43:26.327Z,77.89
2017-08-05T15:45:53.999Z,77.38
2017-08-05T15:48:21.594Z,76.52
2017-08-05T15:50:49.223Z,76.17
2017-08-05T15:53:16.822Z,75.08
2017-08-05T15:55:44.466Z,76.27
2017-08-05T15:58:12.078Z,77.67
2017-08-05T16:00:39.736Z,76.91
2017-08-05T16:03:07.356Z,77.73
2017-08-05T16:05:34.979Z,76.23
2017-08-05T16:08:02.600Z,77.57
2017-08-05T16:10:30.287Z,77.68
2017-08-05T16:12:57.889Z,79.20
2017-08-05T16:15:25.548Z,80.15
2017-08-05T16:17:53.147Z,79.25
2017-08-05T16:20:20.739Z,79.18
2017-08-05T16:22:48.380Z,78.52
2017-08-05T16:25:16.015Z,79.13
2017-08-05T16:27:43.626Z,79.07
2017-08-05T16:30:11.244Z,78.04
2017-08-05T16:32:38.876Z,75.55
2017-08-05T16:35:07.908Z,74.90
2017-08-05T16:37:35.573Z,73.63
2017-08-05T16:40:03.184Z,75.15
2017-08-05T16:42:30.877Z,75.77
2017-08-05T16:44:58.492Z,75.40
2017-08-05T16:47:26.122Z,75.37
2017-08-05T16:49:53.715Z,74.71
2017-08-05T16:52:21.363Z,75.92
2017-08-05T16:54:49.010Z,76.19
2017-08-05T16:57:16.651Z,76.87
2017-08-05T16:59:44.258Z,76.02
2017-08-05T17:02:11.981Z,73.89
2017-08-05T17:04:39.686Z,72.78
2017-08-05T17:07:07.326Z,72.58
2017-08-05T17:09:34.918Z,73.23
2017-08-05T17:12:02.566Z,74.36
2017-08-05T17:14:30.225Z,75.63
2017-08-05T17:16:58.082Z,76.33
2017-08-05T17:19:25.779Z,76.22
2017-08-05T17:21:54.179Z,76.69
2017-08-05T17:24:21.803Z,77.62
2017-08-05T17:26:49.469Z,77.71
2017-08-05T17:29:17.376Z,77.54
2017-08-05T17:31:45.035Z,77.77
2017-08-05T17:34:12.677Z,77.37
2017-08-05T17:36:40.303Z,76.59
2017-08-05T17:39:07.891Z,76.72
2017-08-05T17:41:35.604Z,76.58
2017-08-05T17:44:03.223Z,76.33
2017-08-05T17:46:30.887Z,76.01
2017-08-05T17:48:58.614Z,76.00
2017-08-05T17:51:26.208Z,76.20
2017-08-05T17:53:53.826Z,76.18
2017-08-05T17:56:21.512Z,76.39
2017-08-05T17:58:49.119Z,76.00
2017-08-05T18:01:16.730Z,75.73
2017-08-05T18:03:44.410Z,76.21
2017-08-05T18:06:11.998Z,76.31
2017-08-05T18:08:39.653Z,76.73
2017-08-05T18:11:07.295Z,76.58
2017-08-05T18:13:34.913Z,76.21
2017-08-05T18:16:02.514Z,75.96
2017-08-05T18:18:30.188Z,76.01
2017-08-05T18:20:57.804Z,75.92
2017-08-05T18:23:25.542Z,75.51
2017-08-05T18:25:53.349Z,75.07
2017-08-05T18:28:21.005Z,75.86
2017-08-05T18:30:48.722Z,76.16
2017-08-05T18:33:16.393Z,76.86
2017-08-05T18:35:43.982Z,77.12
2017-08-05T18:38:14.470Z,77.25
2017-08-05T18:40:42.084Z,77.22
2017-08-05T18:43:09.744Z,76.57
2017-08-05T18:45:37.357Z,76.70
2017-08-05T18:48:05.024Z,77.37
2017-08-05T18:50:32.652Z,77.95
2017-08-05T18:53:00.336Z,78.37
2017-08-05T18:55:27.943Z,78.76
2017-08-05T18:57:55.603Z,79.16
2017-08-05T19:00:23.275Z,79.49
2017-08-05T19:02:50.925Z,79.59
2017-08-05T19:05:18.550Z,79.58
2017-08-05T19:07:46.254Z,79.64
2017-08-05T19:10:14.442Z,79.69
2017-08-05T19:12:42.122Z,79.48
2017-08-05T19:15:10.153Z,79.83
2017-08-05T19:17:37.907Z,79.85
2017-08-05T19:20:05.530Z,80.02
2017-08-05T19:22:33.223Z,80.14
2017-08-05T19:25:00.854Z,80.50
2017-08-05T19:27:28.529Z,80.86
2017-08-05T19:29:56.272Z,80.96
2017-08-05T19:32:23.927Z,81.09
2017-08-05T19:34:51.743Z,81.69
2017-08-05T19:37:19.343Z,81.90
2017-08-05T19:39:46.979Z,81.43
2017-08-05T19:42:14.631Z,81.60
2017-08-05T19:44:42.239Z,81.99
2017-08-05T19:47:09.898Z,85.32
2017-08-05T19:49:37.506Z,86.44
2017-08-05T19:52:05.142Z,80.51
2017-08-05T19:54:32.771Z,80.80
2017-08-05T19:57:00.405Z,78.36
2017-08-05T19:59:28.023Z,76.70
2017-08-05T20:01:55.693Z,73.63
2017-08-05T20:04:23.323Z,70.60
2017-08-05T20:06:50.931Z,66.36
2017-08-05T20:09:18.585Z,66.04
2017-08-05T20:11:46.215Z,66.49
2017-08-05T20:14:13.875Z,65.53
2017-08-05T20:16:41.536Z,64.17
2017-08-05T20:19:09.147Z,64.22
2017-08-05T20:21:36.791Z,60.77
2017-08-05T20:24:04.433Z,63.18
2017-08-05T20:26:32.107Z,63.58
2017-08-05T20:28:59.735Z,64.53
2017-08-05T20:31:27.371Z,64.33
2017-08-05T20:33:55.025Z,65.06
2017-08-05T20:36:22.615Z,65.90
2017-08-05T20:38:50.314Z,64.37
2017-08-05T20:41:17.913Z,63.95
2017-08-05T20:43:45.563Z,64.59
2017-08-05T20:46:13.166Z,65.86
2017-08-05T20:48:40.801Z,67.39
2017-08-05T20:51:08.407Z,68.44
2017-08-05T20:53:36.065Z,69.58
2017-08-05T20:56:03.618Z,70.53
2017-08-05T20:58:31.266Z,71.55
2017-08-05T21:00:58.916Z,72.33
2017-08-05T21:03:26.554Z,73.21
2017-08-05T21:05:54.178Z,74.53
2017-08-05T21:08:21.795Z,75.04
2017-08-05T21:10:49.440Z,75.22
2017-08-05T21:13:17.037Z,75.95
2017-08-05T21:15:44.682Z,76.59
2017-08-05T21:18:12.297Z,77.43
2017-08-05T21:20:39.932Z,77.95
2017-08-05T21:23:07.551Z,78.62
2017-08-05T21:25:35.193Z,79.09
2017-08-05T21:28:02.814Z,79.64
2017-08-05T21:30:30.459Z,79.43
2017-08-05T21:32:58.062Z,79.90
2017-08-05T21:35:25.713Z,80.39
2017-08-05T21:37:53.316Z,80.87
2017-08-05T21:40:20.974Z,82.30
2017-08-05T21:42:48.591Z,83.00
2017-08-05T21:45:16.224Z,84.19
2017-08-05T21:47:43.814Z,84.23
2017-08-05T21:50:11.443Z,83.62
2017-08-05T21:52:39.061Z,83.47
2017-08-05T21:55:06.686Z,82.63
2017-08-05T21:57:34.288Z,82.04
2017-08-05T22:00:01.914Z,82.15
2017-08-05T22:02:29.546Z,81.88
2017-08-05T22:04:57.155Z,81.52
2017-08-05T22:07:24.787Z,81.30
2017-08-05T22:09:52.386Z,81.79
2017-08-05T22:12:20.022Z,82.21
2017-08-05T22:14:47.611Z,82.53
2017-08-05T22:17:15.350Z,83.74
2017-08-05T22:19:42.935Z,84.45
2017-08-05T22:22:10.571Z,84.69
2017-08-05T22:24:38.230Z,85.12
2017-08-05T22:27:05.910Z,84.95
2017-08-05T22:29:33.502Z,85.25
2017-08-05T22:32:01.106Z,85.84
2017-08-05T22:34:28.807Z,85.41
2017-08-05T22:36:56.404Z,85.38
2017-08-05T22:39:24.086Z,85.33
2017-08-05T22:41:51.686Z,85.61
2017-08-05T22:44:19.376Z,85.17
2017-08-05T22:46:46.970Z,85.03
2017-08-05T22:49:14.595Z,84.85
2017-08-05T22:51:42.182Z,84.94
2017-08-05T22:54:09.832Z,85.03
2017-08-05T22:56:37.431Z,84.68
2017-08-05T22:59:05.090Z,85.38
2017-08-05T23:01:32.754Z,85.04
2017-08-05T23:04:00.382Z,84.89
2017-08-05T23:06:28.055Z,84.88
2017-08-05T23:08:55.730Z,84.58
2017-08-05T23:11:24.978Z,84.57
2017-08-05T23:13:52.583Z,84.66
2017-08-05T23:16:20.214Z,84.26
2017-08-05T23:18:47.816Z,84.76
2017-08-05T23:21:15.465Z,84.49
2017-08-05T23:23:43.063Z,84.84
2017-08-05T23:26:10.808Z,84.83
2017-08-05T23:28:38.415Z,84.82
2017-08-05T23:31:06.026Z,84.94
2017-08-05T23:33:33.619Z,84.78
2017-08-05T23:36:01.258Z,85.44
2017-08-05T23:38:28.865Z,85.60
2017-08-05T23:40:56.495Z,86.03
2017-08-05T23:43:24.102Z,86.32
2017-08-05T23:45:51.738Z,86.57
2017-08-05T23:48:19.375Z,86.80
2017-08-05T23:50:47.014Z,86.83
2017-08-05T23:53:14.615Z,86.56
2017-08-05T23:55:42.246Z,86.68
2017-08-05T23:58:09.858Z,86.70
